Latest Weather Observations for Whyalla

IDS60801

Issued at 12:51 pm CST Monday 26 August 2019 (issued every 10 minutes, with the page automatically refreshed every 10 minutes)

About weather observations | Map of weather stations | Latest weather observations for SA | Other Formats
Station Details ID: 018120 Name: WHYALLA AERO Lat: -33.05 Lon: 137.52 Height: 9.3 m
Data from the previous 72 hours. | See also: Recent months at Whyalla
Date/Time
CST
Temp
°C
App
Temp
°C
Dew
Point
°C
Rel
Hum
%
Delta-T
°C
Wind Press
QNH
hPa
Press
MSL
hPa
Rain since
9am
mm
Dir  Spd
km/h
Gust
km/h
Spd
kts
Gust
kts
26/12:30pm 12.9 9.1 4.1 55 4.0 SE 13 19 7 10 1027.8 1027.8 0.0
26/12:00pm 12.5 8.3 4.0 56 3.8 SSE 15 22 8 12 1028.2 1028.2 0.0
26/11:30am 12.5 8.4 4.5 58 3.6 SE 15 22 8 12 1028.5 1028.5 0.0
26/11:00am 11.8 7.6 3.8 58 3.6 SSE 15 22 8 12 1028.6 1028.6 0.0
26/10:30am 11.9 8.3 5.1 63 3.1 SE 13 20 7 11 1028.6 1028.6 0.0
26/10:00am 11.8 8.5 6.3 69 2.6 SSE 13 17 7 9 1028.9 1028.9 0.0
26/09:30am 10.8 8.1 7.3 79 1.7 SSE 11 17 6 9 1029.0 1029.0 0.0
26/09:00am 10.7 8.1 7.8 82 1.4 S 11 17 6 9 1028.9 1028.9 0.0
26/08:30am 9.9 7.0 8.2 89 0.8 SSW 13 17 7 9 1029.1 1029.1 0.0
26/08:00am 7.7 5.9 7.1 96 0.3 SW 6 7 3 4 1029.1 1029.1 0.0
26/07:30am 4.9 2.4 4.5 97 0.2 SW 7 9 4 5 1028.7 1028.7 0.0
26/07:00am 2.7 -1.0 2.1 96 0.2 SW 11 13 6 7 1028.4 1028.4 0.0
26/06:30am 2.1 -1.4 1.5 96 0.2 W 9 9 5 5 1028.2 1028.2 0.0
26/06:00am 2.3 -1.1 1.7 96 0.2 NW 9 11 5 6 1028.0 1028.0 0.0
26/05:30am 1.9 -1.6 1.2 95 0.3 WNW 9 9 5 5 1027.8 1027.8 0.0
26/05:00am 2.6 -0.2 1.9 95 0.3 W 6 9 3 5 1027.6 1027.6 0.0
26/04:30am 2.2 -1.3 1.5 95 0.3 WNW 9 11 5 6 1027.5 1027.5 0.0
26/04:00am 2.3 -1.2 1.4 94 0.3 NW 9 11 5 6 1027.3 1027.3 0.0
26/03:30am 2.9 -0.1 1.9 93 0.4 WNW 7 9 4 5 1027.1 1027.1 0.0
26/03:00am 3.4 0.4 2.2 92 0.5 WNW 7 9 4 5 1027.2 1027.2 0.0
26/02:30am 4.1 1.3 2.9 92 0.5 W 7 9 4 5 1027.5 1027.5 0.0
26/02:00am 4.5 1.7 3.2 91 0.5 W 7 9 4 5 1027.5 1027.5 0.0
26/01:30am 4.8 2.0 3.1 89 0.7 NW 7 9 4 5 1027.6 1027.6 0.0
26/01:00am 8.6 6.5 6.6 87 0.9 ESE 7 11 4 6 1027.7 1027.7 0.0
26/12:30am 9.3 6.5 6.9 85 1.1 SE 11 13 6 7 1027.5 1027.5 0.0
26/12:00am 9.7 6.5 6.8 82 1.3 SE 13 15 7 8 1027.3 1027.3 0.0
 
Date/Time
CST
Temp
°C
App
Temp
°C
Dew
Point
°C
Rel
Hum
%
Delta-T
°C
Wind Press
QNH
hPa
Press
MSL
hPa
Rain since
9am
mm
Dir  Spd
km/h
Gust
km/h
Spd
kts
Gust
kts
25/11:30pm 10.0 6.9 7.1 82 1.4 SE 13 17 7 9 1027.5 1027.5 0.0
25/11:00pm 10.5 7.0 7.2 80 1.6 SE 15 22 8 12 1027.5 1027.5 0.0
25/10:30pm 9.6 6.7 6.3 80 1.5 SSW 11 15 6 8 1027.4 1027.4 0.0
25/10:00pm 9.1 5.7 5.8 80 1.5 SSW 13 15 7 8 1027.3 1027.3 0.0
25/09:30pm 9.3 5.8 5.3 76 1.8 SSW 13 19 7 10 1027.4 1027.4 0.0
25/09:00pm 9.9 5.7 5.7 75 1.9 SSW 17 20 9 11 1027.3 1027.3 0.0
25/08:30pm 10.3 6.5 5.9 74 2.0 S 15 20 8 11 1027.3 1027.3 0.0
25/08:00pm 10.6 6.5 6.0 73 2.1 S 17 20 9 11 1027.1 1027.1 0.0
25/07:30pm 10.5 6.6 5.5 71 2.3 S 15 19 8 10 1027.1 1027.1 0.0
25/07:00pm 10.9 6.6 5.4 69 2.5 S 17 20 9 11 1026.8 1026.8 0.0
25/06:30pm 11.1 6.8 5.2 67 2.7 S 17 22 9 12 1026.6 1026.6 0.0
25/06:00pm 11.4 6.9 4.4 62 3.1 S 17 20 9 11 1026.4 1026.4 0.0
25/05:30pm 12.1 7.4 5.3 63 3.1 S 19 24 10 13 1026.1 1026.1 0.0
25/05:00pm 12.4 7.7 5.1 61 3.4 S 19 24 10 13 1025.7 1025.7 0.0
25/04:30pm 12.8 7.4 4.3 56 3.8 S 22 30 12 16 1025.5 1025.5 0.0
25/04:00pm 13.2 8.0 3.3 51 4.4 S 20 26 11 14 1025.4 1025.4 0.0
25/03:30pm 13.7 8.6 3.2 49 4.7 S 19 28 10 15 1025.4 1025.4 0.0
25/03:00pm 13.3 8.0 2.8 49 4.6 S 20 26 11 14 1025.4 1025.4 0.0
25/02:30pm 13.3 8.2 3.1 50 4.5 S 19 26 10 14 1025.5 1025.5 0.0
25/02:00pm 13.2 7.6 1.5 45 5.0 S 20 28 11 15 1025.5 1025.5 0.0
25/01:30pm 13.5 8.6 1.8 45 5.0 SSE 17 24 9 13 1025.8 1025.8 0.0
25/01:00pm 13.0 7.4 -0.3 40 5.5 S 19 28 10 15 1026.0 1026.0 0.0
25/12:30pm 12.7 7.3 1.1 45 4.9 SSE 19 28 10 15 1026.4 1026.4 0.0
25/12:00pm 12.6 7.4 3.8 55 3.9 SSE 20 26 11 14 1026.9 1026.9 0.0
25/11:30am 12.5 7.5 3.5 54 4.0 SSE 19 24 10 13 1027.1 1027.1 0.0
25/11:00am 12.4 7.6 4.9 60 3.4 SE 19 26 10 14 1027.0 1027.0 0.0
25/10:30am 12.0 7.4 5.6 65 3.0 ESE 19 26 10 14 1026.9 1026.9 0.0
25/10:00am 12.1 7.1 4.6 60 3.4 SE 20 26 11 14 1026.7 1026.7 0.0
25/09:30am 11.6 6.6 4.8 63 3.1 SE 20 28 11 15 1026.8 1026.8 0.0
25/09:00am 11.3 6.6 5.2 66 2.8 SE 19 26 10 14 1026.7 1026.7 0.0
25/08:30am 11.2 6.0 3.3 58 3.4 SE 20 28 11 15 1026.2 1026.2 0.0
25/08:00am 11.1 7.0 4.3 63 3.0 SSE 15 26 8 14 1025.9 1025.9 0.0
25/07:30am 10.4 7.6 5.2 70 2.3 SE 9 15 5 8 1025.8 1025.8 0.0
25/07:00am 10.2 6.6 5.2 71 2.3 SE 13 17 7 9 1025.5 1025.5 0.0
25/06:30am 10.0 6.9 5.4 73 2.1 SE 11 19 6 10 1025.0 1025.0 0.0
25/06:00am 9.8 6.4 5.8 76 1.8 SE 13 19 7 10 1024.6 1024.6 0.0
25/05:30am 10.3 6.4 5.5 72 2.2 SE 15 20 8 11 1024.5 1024.5 0.0
25/05:00am 10.3 6.3 4.9 69 2.4 SSE 15 20 8 11 1024.3 1024.3 0.0
25/04:30am 10.4 6.5 5.2 70 2.4 SSE 15 22 8 12 1024.1 1024.1 0.0
25/04:00am 10.0 6.1 5.4 73 2.1 SSE 15 20 8 11 1023.9 1023.9 0.0
25/03:30am 8.5 5.5 6.0 84 1.1 S 11 17 6 9 1023.8 1023.8 0.0
25/03:00am 10.0 5.8 5.6 74 2.0 SSE 17 24 9 13 1023.7 1023.7 0.0
25/02:30am 10.1 5.9 5.9 75 1.9 SSE 17 20 9 11 1023.7 1023.7 0.0
25/02:00am 10.0 6.6 6.0 76 1.8 SSE 13 19 7 10 1023.9 1023.9 0.0
25/01:30am 10.2 6.1 6.0 75 1.9 SSE 17 22 9 12 1023.9 1023.9 0.0
25/01:00am 10.5 6.0 6.1 74 2.0 SSE 19 24 10 13 1023.8 1023.8 0.0
25/12:30am 10.8 6.2 6.6 75 2.0 SSE 20 26 11 14 1023.7 1023.7 0.0
25/12:00am 11.0 6.8 7.5 79 1.7 SSE 19 26 10 14 1023.6 1023.6 0.0
 
Date/Time
CST
Temp
°C
App
Temp
°C
Dew
Point
°C
Rel
Hum
%
Delta-T
°C
Wind Press
QNH
hPa
Press
MSL
hPa
Rain since
9am
mm
Dir  Spd
km/h
Gust
km/h
Spd
kts
Gust
kts
24/11:30pm 11.1 6.9 7.6 79 1.7 SSE 19 26 10 14 1023.7 1023.7 0.0
24/11:00pm 11.4 6.7 7.7 78 1.8 SSE 22 32 12 17 1023.6 1023.6 0.0
24/10:30pm 11.0 6.9 7.9 81 1.5 SSW 19 26 10 14 1023.3 1023.3 0.0
24/10:00pm 10.5 5.9 6.5 76 1.9 SSW 20 28 11 15 1023.3 1023.3 0.0
24/09:30pm 10.7 6.2 6.8 77 1.8 SSW 20 24 11 13 1023.1 1023.1 0.0
24/09:00pm 10.9 6.6 6.8 76 1.9 SSW 19 24 10 13 1022.7 1022.7 0.0
24/08:30pm 12.1 6.6 7.4 73 2.3 S 26 37 14 20 1022.2 1022.2 0.0
24/08:00pm 12.0 6.3 6.9 71 2.4 S 26 33 14 18 1022.0 1022.0 0.0
24/07:30pm 12.5 6.2 7.2 70 2.5 S 30 43 16 23 1021.6 1021.6 0.0
24/07:00pm 12.7 6.4 7.4 70 2.6 S 30 41 16 22 1020.9 1020.9 0.0
24/06:30pm 12.7 5.7 7.0 68 2.7 S 33 43 18 23 1020.4 1020.4 0.0
24/06:00pm 12.9 6.1 7.1 68 2.8 S 32 46 17 25 1020.2 1020.2 0.0
24/05:30pm 13.1 7.0 8.2 72 2.4 S 30 39 16 21 1019.8 1019.8 0.0
24/05:00pm 13.4 7.0 8.5 72 2.4 S 32 43 17 23 1019.4 1019.4 0.0
24/04:30pm 13.7 7.8 9.0 73 2.4 S 30 41 16 22 1019.0 1019.0 0.0
24/04:13pm 14.0 8.5 9.2 73 2.4 S 28 46 15 25 1019.0 1019.0 0.0
24/04:00pm 13.9 7.5 8.7 71 2.6 S 32 44 17 24 1018.9 1018.9 0.0
24/03:30pm 14.5 8.4 9.9 74 2.4 S 32 46 17 25 1018.5 1018.5 0.0
24/03:00pm 15.0 9.0 10.2 73 2.5 SSE 32 50 17 27 1018.0 1018.0 0.0
24/02:30pm 15.2 7.7 10.8 75 2.3 S 41 54 22 29 1017.5 1017.5 0.0
24/02:00pm 15.8 9.7 10.6 71 2.8 S 33 43 18 23 1017.2 1017.2 0.0
24/01:30pm 16.8 10.2 11.5 71 2.9 S 37 52 20 28 1017.2 1017.2 0.0
24/01:08pm 16.6 11.5 10.5 67 3.2 S 28 46 15 25 1017.2 1017.2 0.0
24/01:00pm 16.6 11.5 10.7 68 3.1 S 28 43 15 23 1017.5 1017.5 0.0
24/12:30pm 17.8 13.2 5.4 44 6.0 SSE 19 28 10 15 1017.0 1017.0 0.0
24/12:00pm 19.7 15.4 1.2 29 8.3 W 13 24 7 13 1017.3 1017.3 0.0
24/11:30am 19.2 14.3 1.7 31 7.9 WNW 17 24 9 13 1017.5 1017.5 0.0
24/11:00am 18.9 12.7 1.9 32 7.7 WNW 24 33 13 18 1017.5 1017.5 0.0
24/10:30am 18.7 12.3 1.2 31 7.8 WNW 24 37 13 20 1017.4 1017.4 0.0
24/10:00am 18.6 11.2 2.0 33 7.5 NW 30 39 16 21 1017.3 1017.3 0.0
24/09:30am 17.2 9.1 1.2 34 7.1 NW 33 46 18 25 1017.2 1017.2 0.0
24/09:00am 17.2 8.8 1.6 35 6.9 NNW 35 50 19 27 1017.2 1017.2 0.0
24/08:55am 16.8 8.9 1.3 35 6.8 NW 32 50 17 27 1017.2 1017.2 0.0
24/08:30am 15.9 8.8 1.6 38 6.3 NNW 28 39 15 21 1016.9 1016.9 0.0
24/08:00am 14.1 7.9 2.0 44 5.3 NNW 24 30 13 16 1016.7 1016.7 0.0
24/07:30am 12.1 6.6 2.0 50 4.3 NNW 20 24 11 13 1016.6 1016.6 0.0
24/07:00am 12.0 5.8 1.9 50 4.3 NNW 24 32 13 17 1016.4 1016.4 0.0
24/06:30am 12.4 6.5 1.7 48 4.6 NNW 22 30 12 16 1016.1 1016.1 0.0
24/06:00am 12.5 6.2 1.5 47 4.7 NNW 24 32 13 17 1016.1 1016.1 0.0
24/05:30am 12.8 6.5 1.8 47 4.7 NNW 24 32 13 17 1015.9 1015.9 0.0
24/05:00am 13.0 5.6 1.7 46 4.9 NNW 30 39 16 21 1015.7 1015.7 0.0
24/04:30am 12.8 5.8 1.8 47 4.7 NNW 28 39 15 21 1015.6 1015.6 0.0
24/04:00am 12.5 6.2 1.5 47 4.7 NNW 24 32 13 17 1015.9 1015.9 0.0
24/03:30am 13.0 6.7 1.7 46 4.9 NNW 24 32 13 17 1015.9 1015.9 0.0
24/03:00am 13.0 6.7 1.4 45 4.9 NNW 24 33 13 18 1016.3 1016.3 0.0
24/02:47am 13.0 7.6 2.3 48 4.7 NNW 20 30 11 16 1016.4 1016.4 0.0
24/02:30am 7.9 3.2 0.6 60 2.9 NW 15 19 8 10 1016.7 1016.7 0.0
24/02:00am 8.1 3.3 0.3 58 3.1 NW 15 19 8 10 1017.3 1017.3 0.0
24/01:30am 9.0 4.2 0.5 55 3.4 NW 15 17 8 9 1017.6 1017.6 0.0
24/01:00am 9.0 4.3 1.0 57 3.3 NW 15 19 8 10 1017.9 1017.9 0.0
24/12:30am 10.5 5.8 1.1 52 3.9 NW 15 19 8 10 1017.9 1017.9 0.0
24/12:00am 12.2 7.5 1.2 47 4.6 NW 15 20 8 11 1018.1 1018.1 0.0
 
Date/Time
CST
Temp
°C
App
Temp
°C
Dew
Point
°C
Rel
Hum
%
Delta-T
°C
Wind Press
QNH
hPa
Press
MSL
hPa
Rain since
9am
mm
Dir  Spd
km/h
Gust
km/h
Spd
kts
Gust
kts
23/11:30pm 13.0 8.0 1.4 45 4.9 N 17 20 9 11 1018.2 1018.2 0.0
23/11:00pm 14.5 9.1 1.1 40 5.8 N 19 22 10 12 1018.3 1018.3 0.0
23/10:30pm 15.0 10.0 1.5 40 5.9 N 17 22 9 12 1018.5 1018.5 0.0
23/10:00pm 13.8 9.2 1.5 43 5.3 N 15 19 8 10 1018.8 1018.8 0.0
23/09:30pm 13.0 8.4 1.7 46 4.8 NNW 15 17 8 9 1019.0 1019.0 0.0
23/09:00pm 14.9 10.3 1.4 40 5.9 N 15 19 8 10 1018.9 1018.9 0.0
23/08:30pm 15.3 10.7 1.8 40 5.9 N 15 19 8 10 1019.0 1019.0 0.0
23/08:00pm 14.2 9.5 0.8 40 5.7 N 15 19 8 10 1018.9 1018.9 0.0
23/07:30pm 14.4 9.7 0.6 39 5.9 NNW 15 15 8 8 1018.9 1018.9 0.0
23/07:00pm 15.8 11.8 0.4 35 6.6 N 11 13 6 7 1018.6 1018.6 0.0
23/06:30pm 18.0 13.2 0.2 30 7.7 N 15 20 8 11 1018.4 1018.4 0.0
23/06:00pm 19.8 13.7 0.3 27 8.6 N 22 30 12 16 1018.1 1018.1 0.0
23/05:30pm 20.9 14.5 1.2 27 9.0 N 24 32 13 17 1018.2 1018.2 0.0
23/05:00pm 21.6 15.2 0.8 25 9.5 NNW 24 32 13 17 1018.4 1018.4 0.0
23/04:30pm 21.9 14.3 0.4 24 9.7 NNW 30 39 16 21 1018.6 1018.6 0.0
23/04:00pm 22.4 15.9 2.5 27 9.4 NNW 26 35 14 19 1018.9 1018.9 0.0
23/03:30pm 22.6 16.0 2.1 26 9.6 NNW 26 37 14 20 1019.0 1019.0 0.0
23/03:00pm 22.6 15.6 2.1 26 9.6 N 28 43 15 23 1019.4 1019.4 0.0
23/02:30pm 22.8 15.6 2.8 27 9.5 NNW 30 44 16 24 1019.8 1019.8 0.0
23/02:00pm 22.0 14.8 3.2 29 9.0 NNW 30 39 16 21 1020.3 1020.3 0.0
23/01:30pm 21.5 14.6 2.7 29 8.8 NNW 28 37 15 20 1020.9 1020.9 0.0
23/01:00pm 20.5 13.8 3.7 33 8.0 N 28 39 15 21 1021.4 1021.4 0.0

Other formats

Comma delimited format used in spreadsheet applications
http://www.bom.gov.au/fwo/IDS60801/IDS60801.95664.axf

JavaScript Object Notation format (JSON) in row-major order
http://www.bom.gov.au/fwo/IDS60801/IDS60801.95664.json

Data quality

Most of these data are generated automatically and are frequently updated. Quality checks on data are not normally performed. It is possible for incorrect values to appear. Refer to information at About Latest Weather Observations and please check the disclaimer before using these data.